地図

経路データ

SID SEASON NUMBER BASIN SUBBASIN NAME ISO_TIME NATURE LAT LON WMO_WIND WMO_PRES WMO_AGENCY TRACK_TYPE DIST2LAND LANDFALL IFLAG USA_AGENCY USA_ATCF_ID USA_LAT USA_LON USA_RECORD USA_STATUS USA_WIND USA_PRES USA_SSHS USA_R34_NE USA_R34_SE USA_R34_SW USA_R34_NW USA_R50_NE USA_R50_SE USA_R50_SW USA_R50_NW USA_R64_NE USA_R64_SE USA_R64_SW USA_R64_NW USA_POCI USA_ROCI USA_RMW USA_EYE TOKYO_LAT TOKYO_LON TOKYO_GRADE TOKYO_WIND TOKYO_PRES TOKYO_R50_DIR TOKYO_R50_LONG TOKYO_R50_SHORT TOKYO_R30_DIR TOKYO_R30_LONG TOKYO_R30_SHORT TOKYO_LAND CMA_LAT CMA_LON CMA_CAT CMA_WIND CMA_PRES HKO_LAT HKO_LON HKO_CAT HKO_WIND HKO_PRES NEWDELHI_LAT NEWDELHI_LON NEWDELHI_GRADE NEWDELHI_WIND NEWDELHI_PRES NEWDELHI_CI NEWDELHI_DP NEWDELHI_POCI REUNION_LAT REUNION_LON REUNION_TYPE REUNION_WIND REUNION_PRES REUNION_TNUM REUNION_CI REUNION_RMW REUNION_R34_NE REUNION_R34_SE REUNION_R34_SW REUNION_R34_NW REUNION_R50_NE REUNION_R50_SE REUNION_R50_SW REUNION_R50_NW REUNION_R64_NE REUNION_R64_SE REUNION_R64_SW REUNION_R64_NW BOM_LAT BOM_LON BOM_TYPE BOM_WIND BOM_PRES BOM_TNUM BOM_CI BOM_RMW BOM_R34_NE BOM_R34_SE BOM_R34_SW BOM_R34_NW BOM_R50_NE BOM_R50_SE BOM_R50_SW BOM_R50_NW BOM_R64_NE BOM_R64_SE BOM_R64_SW BOM_R64_NW BOM_ROCI BOM_POCI BOM_EYE BOM_POS_METHOD BOM_PRES_METHOD NADI_LAT NADI_LON NADI_CAT NADI_WIND NADI_PRES WELLINGTON_LAT WELLINGTON_LON WELLINGTON_WIND WELLINGTON_PRES DS824_LAT DS824_LON DS824_STAGE DS824_WIND DS824_PRES TD9636_LAT TD9636_LON TD9636_STAGE TD9636_WIND TD9636_PRES TD9635_LAT TD9635_LON TD9635_WIND TD9635_PRES TD9635_ROCI NEUMANN_LAT NEUMANN_LON NEUMANN_CLASS NEUMANN_WIND NEUMANN_PRES MLC_LAT MLC_LON MLC_CLASS MLC_WIND MLC_PRES USA_GUST BOM_GUST BOM_GUST_PER REUNION_GUST REUNION_GUST_PER USA_SEAHGT USA_SEARAD_NE USA_SEARAD_SE USA_SEARAD_SW USA_SEARAD_NW STORM_SPEED STORM_DIR
1862251N15325 1862 20 NA NA NOT_NAMED 1862-09-08 00:00:00 TS 15.0000 -34.8000 main 1860 1860 _____________O -1 15.0000 -34.8000 TD 30 13 289
1862251N15325 1862 20 NA NA NOT_NAMED 1862-09-08 03:00:00 TS 15.2104 -35.4497 main 1924 1924 _____________P -1 15.2104 -35.4497 TD 30 13 288
1862251N15325 1862 20 NA NA NOT_NAMED 1862-09-08 06:00:00 TS 15.4000 -36.1000 main 1999 1999 _____________O -1 15.4000 -36.1000 TD 30 13 285
1862251N15325 1862 20 NA NA NOT_NAMED 1862-09-08 09:00:00 TS 15.5573 -36.7502 main 2029 1985 _____________P -1 15.5573 -36.7502 TD 30 13 283
1862251N15325 1862 20 NA NA NOT_NAMED 1862-09-08 12:00:00 TS 15.7000 -37.4000 main 1985 1942 _____________O -1 15.7000 -37.4000 TD 30 13 283
1862251N15325 1862 20 NA NA NOT_NAMED 1862-09-08 15:00:00 TS 15.8499 -38.0576 main 1934 1901 _____________P -1 15.8499 -38.0576 TD 30 13 283
1862251N15325 1862 20 NA NA NOT_NAMED 1862-09-08 18:00:00 TS 16.0000 -38.7000 main 1901 1861 _____________O -1 16.0000 -38.7000 TD 30 12 283
1862251N15325 1862 20 NA NA NOT_NAMED 1862-09-08 21:00:00 TS 16.1347 -39.3003 main 1861 1832 _____________P -1 16.1347 -39.3003 TD 32 12 285
1862251N15325 1862 20 NA NA NOT_NAMED 1862-09-09 00:00:00 TS 16.3000 -39.9000 main 1832 1805 _____________O -1 16.3000 -39.9000 TS 35 13 289
1862251N15325 1862 20 NA NA NOT_NAMED 1862-09-09 03:00:00 TS 16.5349 -40.5425 main 1805 1780 _____________P -1 16.5349 -40.5425 TS 35 13 292
1862251N15325 1862 20 NA NA NOT_NAMED 1862-09-09 06:00:00 TS 16.8000 -41.2000 main 1781 1759 _____________O -1 16.8000 -41.2000 TS 35 14 292
1862251N15325 1862 20 NA NA NOT_NAMED 1862-09-09 09:00:00 TS 17.0498 -41.8502 main 1753 1740 _____________P -1 17.0498 -41.8502 TS 35 13 292
1862251N15325 1862 20 NA NA NOT_NAMED 1862-09-09 12:00:00 TS 17.3000 -42.5000 main 1743 1722 _____________O -1 17.3000 -42.5000 TS 35 13 292
1862251N15325 1862 20 NA NA NOT_NAMED 1862-09-09 15:00:00 TS 17.5499 -43.1576 main 1715 1702 _____________P -1 17.5499 -43.1576 TS 35 13 292
1862251N15325 1862 20 NA NA NOT_NAMED 1862-09-09 18:00:00 TS 17.8000 -43.8000 main 1705 1688 _____________O -1 17.8000 -43.8000 TS 35 13 293
1862251N15325 1862 20 NA NA NOT_NAMED 1862-09-09 21:00:00 TS 18.0497 -44.4002 main 1688 1679 _____________P -1 18.0497 -44.4002 TS 37 12 294
1862251N15325 1862 20 NA NA NOT_NAMED 1862-09-10 00:00:00 TS 18.3000 -45.0000 main 1683 1672 _____________O -1 18.3000 -45.0000 TS 40 13 293
1862251N15325 1862 20 NA NA NOT_NAMED 1862-09-10 03:00:00 TS 18.5499 -45.6427 main 1672 1662 _____________P -1 18.5499 -45.6427 TS 40 13 292
1862251N15325 1862 20 NA NA NOT_NAMED 1862-09-10 06:00:00 TS 18.8000 -46.3000 main 1668 1660 _____________O -1 18.8000 -46.3000 TS 40 13 292
1862251N15325 1862 20 NA NA NOT_NAMED 1862-09-10 09:00:00 TS 19.0498 -46.9502 main 1658 1656 _____________P -1 19.0498 -46.9502 TS 40 13 292
1862251N15325 1862 20 NA NA NOT_NAMED 1862-09-10 12:00:00 TS 19.3000 -47.6000 main 1661 1653 _____________O -1 19.3000 -47.6000 TS 40 13 292
1862251N15325 1862 20 NA NA NOT_NAMED 1862-09-10 15:00:00 TS 19.5573 -48.2576 main 1661 1648 _____________P -1 19.5573 -48.2576 TS 40 13 292
1862251N15325 1862 20 NA NA NOT_NAMED 1862-09-10 18:00:00 TS 19.8000 -48.9000 main 1648 1612 _____________O -1 19.8000 -48.9000 TS 40 13 291
1862251N15325 1862 20 NA NA NOT_NAMED 1862-09-10 21:00:00 TS 20.0072 -49.5078 main 1612 1578 _____________P -1 20.0072 -49.5078 TS 42 12 290
1862251N15325 1862 20 NA NA NOT_NAMED 1862-09-11 00:00:00 TS 20.2000 -50.1000 main 1578 1547 _____________O -1 20.2000 -50.1000 TS 45 12 289
1862251N15325 1862 20 NA NA NOT_NAMED 1862-09-11 03:00:00 TS 20.3998 -50.7002 main 1547 1517 _____________P -1 20.3998 -50.7002 TS 45 12 290
1862251N15325 1862 20 NA NA NOT_NAMED 1862-09-11 06:00:00 TS 20.6000 -51.3000 main 1517 1469 _____________O -1 20.6000 -51.3000 TS 45 12 290
1862251N15325 1862 20 NA NA NOT_NAMED 1862-09-11 09:00:00 TS 20.7995 -51.8778 main 1459 1401 _____________P -1 20.7995 -51.8778 TS 45 12 290
1862251N15325 1862 20 NA NA NOT_NAMED 1862-09-11 12:00:00 TS 21.0000 -52.5000 main 1401 1334 _____________O -1 21.0000 -52.5000 TS 45 13 288
1862251N15325 1862 20 NA NA NOT_NAMED 1862-09-11 15:00:00 TS 21.2075 -53.2350 main 1334 1257 _____________P -1 21.2075 -53.2350 TS 45 15 286
1862251N15325 1862 20 NA NA NOT_NAMED 1862-09-11 18:00:00 TS 21.4000 -54.0000 main 1257 1190 _____________O -1 21.4000 -54.0000 TS 45 14 284
1862251N15325 1862 20 NA NA NOT_NAMED 1862-09-11 21:00:00 TS 21.5497 -54.7153 main 1190 1110 _____________P -1 21.5497 -54.7153 TS 47 16 287
1862251N15325 1862 20 NA NA NOT_NAMED 1862-09-12 00:00:00 TS 21.8667 -55.6000 60 hurdat_atl main 1114 1063 O____________O hurdat_atl AL031862 22.2000 -56.0000 TS 60 0 21.7000 -55.4000 TS 50 16 291
1862251N15325 1862 20 NA NA NOT_NAMED 1862-09-12 03:00:00 TS 22.1025 -56.2812 main 1054 1010 P____________P AL031862 22.3129 -56.5047 TS 60 0 21.8922 -56.0576 TS 50 13 289
1862251N15325 1862 20 NA NA NOT_NAMED 1862-09-12 06:00:00 TS 22.2800 -56.8800 60 hurdat_atl main 1006 964 O____________O hurdat_atl AL031862 22.4000 -57.0000 TS 60 0 22.1000 -56.7000 TS 50 11 285
1862251N15325 1862 20 NA NA NOT_NAMED 1862-09-12 09:00:00 TS 22.3997 -57.4402 main 964 914 P____________P AL031862 22.4497 -57.4852 TS 60 0 22.2997 -57.3502 TS 52 11 282
1862251N15325 1862 20 NA NA NOT_NAMED 1862-09-12 12:00:00 TS 22.5000 -58.0000 60 hurdat_atl main 914 866 O____________O hurdat_atl AL031862 22.5000 -58.0000 TS 60 0 22.5000 -58.0000 TS 55 11 281
1862251N15325 1862 20 NA NA NOT_NAMED 1862-09-12 15:00:00 TS 22.6182 -58.6093 main 866 821 P____________P AL031862 22.5774 -58.5852 TS 60 0 22.6998 -58.6576 TS 57 12 283
1862251N15325 1862 20 NA NA NOT_NAMED 1862-09-12 18:00:00 TS 22.7667 -59.2333 60 hurdat_atl main 827 785 O____________O hurdat_atl AL031862 22.7000 -59.2000 TS 60 0 22.9000 -59.3000 TS 60 12 287
1862251N15325 1862 20 NA NA NOT_NAMED 1862-09-12 21:00:00 TS 22.9614 -59.8383 main 792 753 P____________P AL031862 22.8924 -59.8074 TS 65 1 23.0996 -59.9002 TS 60 12 290
1862251N15325 1862 20 NA NA NOT_NAMED 1862-09-13 00:00:00 TS 23.1667 -60.4333 70 hurdat_atl main 761 726 O____________O hurdat_atl AL031862 23.1000 -60.4000 HU 70 1 23.3000 -60.5000 TS 60 11 289
1862251N15325 1862 20 NA NA NOT_NAMED 1862-09-13 03:00:00 TS 23.3405 -61.0119 main 726 705 P____________P AL031862 23.2571 -60.9428 HU 70 1 23.5074 -61.1500 TS 62 11 287
1862251N15325 1862 20 NA NA NOT_NAMED 1862-09-13 06:00:00 TS 23.5000 -61.6000 70 hurdat_atl main 705 680 O____________O hurdat_atl AL031862 23.4000 -61.5000 HU 70 1 23.7000 -61.8000 HU 65 12 285
1862251N15325 1862 20 NA NA NOT_NAMED 1862-09-13 09:00:00 TS 23.6374 -62.2337 main 680 664 P____________P AL031862 23.5350 -62.1428 HU 70 1 23.8423 -62.4154 HU 67 12 285
1862251N15325 1862 20 NA NA NOT_NAMED 1862-09-13 12:00:00 TS 23.8000 -62.8667 70 hurdat_atl main 665 661 O____________O hurdat_atl AL031862 23.7000 -62.8000 HU 70 1 24.0000 -63.0000 HU 70 12 290
1862251N15325 1862 20 NA NA NOT_NAMED 1862-09-13 15:00:00 TS 24.0397 -63.4550 main 662 662 P____________P AL031862 23.9421 -63.4000 HU 70 1 24.2348 -63.5650 HU 70 12 295
1862251N15325 1862 20 NA NA NOT_NAMED 1862-09-13 18:00:00 TS 24.3000 -64.0333 70 hurdat_atl main 680 677 O____________O hurdat_atl AL031862 24.2000 -64.0000 HU 70 1 24.5000 -64.1000 HU 70 12 294
1862251N15325 1862 20 NA NA NOT_NAMED 1862-09-13 21:00:00 TS 24.5215 -64.6336 main 689 688 P____________P AL031862 24.4074 -64.6502 HU 75 1 24.7497 -64.6003 HU 72 12 292
1862251N15325 1862 20 NA NA NOT_NAMED 1862-09-14 00:00:00 TS 24.7333 -65.2333 80 hurdat_atl main 705 705 O____________O hurdat_atl AL031862 24.6000 -65.3000 HU 80 1 25.0000 -65.1000 HU 75 12 291
1862251N15325 1862 20 NA NA NOT_NAMED 1862-09-14 03:00:00 TS 24.9398 -65.8270 main 722 717 P____________P AL031862 24.7848 -65.9154 HU 80 1 25.2500 -65.6501 HU 75 11 292
1862251N15325 1862 20 NA NA NOT_NAMED 1862-09-14 06:00:00 TS 25.1667 -66.4000 80 hurdat_atl main 723 715 O____________O hurdat_atl AL031862 25.0000 -66.5000 HU 80 1 25.5000 -66.2000 HU 75 11 296
1862251N15325 1862 20 NA NA NOT_NAMED 1862-09-14 09:00:00 TS 25.4499 -66.9632 main 717 717 P____________P AL031862 25.3000 -67.0872 HU 80 1 25.7498 -66.7152 HU 77 11 300
1862251N15325 1862 20 NA NA NOT_NAMED 1862-09-14 12:00:00 TS 25.7333 -67.4667 80 hurdat_atl main 728 728 O____________O hurdat_atl AL031862 25.6000 -67.6000 HU 80 1 26.0000 -67.2000 HU 80 10 301
1862251N15325 1862 20 NA NA NOT_NAMED 1862-09-14 15:00:00 TS 25.9497 -67.8755 main 735 733 P____________P AL031862 25.7997 -67.9806 HU 80 1 26.2499 -67.6652 HU 80 8 302
1862251N15325 1862 20 NA NA NOT_NAMED 1862-09-14 18:00:00 TS 26.1667 -68.2333 80 hurdat_atl main 742 730 O____________O hurdat_atl AL031862 26.0000 -68.3000 HU 80 1 26.5000 -68.1000 HU 80 8 307
1862251N15325 1862 20 NA NA NOT_NAMED 1862-09-14 21:00:00 TS 26.4398 -68.5976 main 733 733 P____________P AL031862 26.2849 -68.6426 HU 85 2 26.7498 -68.5077 HU 82 9 311
1862251N15325 1862 20 NA NA NOT_NAMED 1862-09-15 00:00:00 TS 26.7333 -68.9667 90 hurdat_atl main 736 736 O____________O hurdat_atl AL031862 26.6000 -69.0000 HU 90 2 27.0000 -68.9000 HU 85 9 310
1862251N15325 1862 20 NA NA NOT_NAMED 1862-09-15 03:00:00 TS 27.0166 -69.3668 main 743 743 P____________P AL031862 26.9000 -69.4001 HU 90 2 27.2499 -69.3002 HU 85 9 309
1862251N15325 1862 20 NA NA NOT_NAMED 1862-09-15 06:00:00 TS 27.3000 -69.7667 90 hurdat_atl main 754 754 O____________O hurdat_atl AL031862 27.2000 -69.8000 HU 90 2 27.5000 -69.7000 HU 85 9 309
1862251N15325 1862 20 NA NA NOT_NAMED 1862-09-15 09:00:00 TS 27.5708 -70.1511 main 769 765 P____________P AL031862 27.4924 -70.1653 HU 90 2 27.7276 -70.1227 HU 87 9 311
1862251N15325 1862 20 NA NA NOT_NAMED 1862-09-15 12:00:00 TS 27.8667 -70.5000 90 hurdat_atl main 790 786 O____________O hurdat_atl AL031862 27.8000 -70.5000 HU 90 2 28.0000 -70.5000 HU 90 9 318
1862251N15325 1862 20 NA NA NOT_NAMED 1862-09-15 15:00:00 TS 28.2233 -70.8084 main 794 785 P____________P AL031862 28.1425 -70.8225 HU 90 2 28.3848 -70.7801 HU 90 9 326
1862251N15325 1862 20 NA NA NOT_NAMED 1862-09-15 18:00:00 TS 28.6000 -71.0667 90 hurdat_atl main 787 784 O____________O hurdat_atl AL031862 28.5000 -71.1000 HU 90 2 28.8000 -71.0000 HU 90 8 330
1862251N15325 1862 20 NA NA NOT_NAMED 1862-09-15 21:00:00 TS 28.9449 -71.2770 main 787 764 P____________P AL031862 28.8424 -71.3153 HU 90 2 29.1499 -71.2004 HU 92 8 333
1862251N15325 1862 20 NA NA NOT_NAMED 1862-09-16 00:00:00 TS 29.3000 -71.4667 90 hurdat_atl main 764 716 O____________O hurdat_atl AL031862 29.2000 -71.5000 HU 90 2 29.5000 -71.4000 HU 95 8 335
1862251N15325 1862 20 NA NA NOT_NAMED 1862-09-16 03:00:00 TS 29.7000 -71.6834 main 716 669 P____________P AL031862 29.6000 -71.7001 HU 90 2 29.9000 -71.6499 HU 95 9 335
1862251N15325 1862 20 NA NA NOT_NAMED 1862-09-16 06:00:00 TS 30.1000 -71.9000 90 hurdat_atl main 669 631 O____________O hurdat_atl AL031862 30.0000 -71.9000 HU 90 2 30.3000 -71.9000 HU 95 8 333
1862251N15325 1862 20 NA NA NOT_NAMED 1862-09-16 09:00:00 TS 30.4525 -72.1200 main 623 585 P____________P AL031862 30.3575 -72.1076 HU 90 2 30.6425 -72.1449 HU 95 8 334
1862251N15325 1862 20 NA NA NOT_NAMED 1862-09-16 12:00:00 TS 30.8000 -72.3000 90 hurdat_atl main 585 545 O____________O hurdat_atl AL031862 30.7000 -72.3000 HU 90 2 31.0000 -72.3000 HU 95 8 341
1862251N15325 1862 20 NA NA NOT_NAMED 1862-09-16 15:00:00 TS 31.1833 -72.4060 main 545 515 P____________P AL031862 31.0575 -72.4651 HU 90 2 31.4350 -72.2879 HU 95 8 350
1862251N15325 1862 20 NA NA NOT_NAMED 1862-09-16 18:00:00 TS 31.5667 -72.4667 90 hurdat_atl main 507 484 O____________O hurdat_atl AL031862 31.4000 -72.6000 HU 90 2 31.9000 -72.2000 HU 95 8 353
1862251N15325 1862 20 NA NA NOT_NAMED 1862-09-16 21:00:00 TS 31.9292 -72.5242 main 484 455 P____________P AL031862 31.7150 -72.7151 HU 90 2 32.3575 -72.1426 HU 95 7 353
1862251N15325 1862 20 NA NA NOT_NAMED 1862-09-17 00:00:00 TS 32.2667 -72.5667 90 hurdat_atl main 448 426 O____________O hurdat_atl AL031862 32.0000 -72.8000 HU 90 2 32.8000 -72.1000 HU 95 6 354
1862251N15325 1862 20 NA NA NOT_NAMED 1862-09-17 03:00:00 TS 32.5717 -72.6050 main 426 407 P____________P AL031862 32.2575 -72.8576 HU 90 2 33.2000 -72.0998 HU 95 6 355
1862251N15325 1862 20 NA NA NOT_NAMED 1862-09-17 06:00:00 TS 32.8667 -72.6333 90 hurdat_atl main 407 381 O____________O hurdat_atl AL031862 32.5000 -72.9000 HU 90 2 33.6000 -72.1000 HU 95 6 357
1862251N15325 1862 20 NA NA NOT_NAMED 1862-09-17 09:00:00 TS 33.1708 -72.6526 main 381 360 P____________P AL031862 32.7275 -72.9501 HU 90 2 34.0575 -72.0576 HU 97 6 0
1862251N15325 1862 20 NA NA NOT_NAMED 1862-09-17 12:00:00 TS 33.5000 -72.6667 90 hurdat_atl main 360 338 O____________O hurdat_atl AL031862 33.0000 -73.0000 HU 90 2 34.5000 -72.0000 MH 100 7 357
1862251N15325 1862 20 NA NA NOT_NAMED 1862-09-17 15:00:00 TS 33.8633 -72.6932 main 331 310 P____________P AL031862 33.3625 -73.0648 HU 90 2 34.8650 -71.9499 MH 100 8 0
1862251N15325 1862 20 NA NA NOT_NAMED 1862-09-17 18:00:00 TS 34.2667 -72.7000 90 hurdat_atl main 304 281 O____________O hurdat_atl AL031862 33.8000 -73.1000 HU 90 2 35.2000 -71.9000 MH 100 8 0
1862251N15325 1862 20 NA NA NOT_NAMED 1862-09-17 21:00:00 TS 34.6991 -72.6797 main 281 272 P____________P AL031862 34.2700 -73.0872 HU 90 2 35.5575 -71.8648 MH 100 9 5
1862251N15325 1862 20 NA NA NOT_NAMED 1862-09-18 00:00:00 TS 35.1667 -72.6000 90 hurdat_atl main 270 267 O____________O hurdat_atl AL031862 34.8000 -73.0000 HU 90 2 35.9000 -71.8000 MH 100 10 11
1862251N15325 1862 20 NA NA NOT_NAMED 1862-09-18 03:00:00 TS 35.6667 -72.4418 main 279 278 P____________P AL031862 35.4000 -72.8302 HU 90 2 36.2000 -71.6650 MH 100 10 17
1862251N15325 1862 20 NA NA NOT_NAMED 1862-09-18 06:00:00 TS 36.1667 -72.2333 90 hurdat_atl main 299 299 O____________O hurdat_atl AL031862 36.0000 -72.6000 HU 90 2 36.5000 -71.5000 MH 100 10 19
1862251N15325 1862 20 NA NA NOT_NAMED 1862-09-18 09:00:00 TS 36.6216 -72.0337 main 325 316 P____________P AL031862 36.5149 -72.3645 HU 90 2 36.8349 -71.3720 MH 100 10 21
1862251N15325 1862 20 NA NA NOT_NAMED 1862-09-18 12:00:00 TS 37.0667 -71.8000 90 hurdat_atl main 318 318 O____________O hurdat_atl AL031862 37.0000 -72.1000 HU 90 2 37.2000 -71.2000 MH 100 10 23
1862251N15325 1862 20 NA NA NOT_NAMED 1862-09-18 15:00:00 TS 37.5304 -71.5515 main 318 314 P____________P AL031862 37.4993 -71.8660 HU 90 2 37.5926 -70.9226 MH 100 10 27
1862251N15325 1862 20 NA NA NOT_NAMED 1862-09-18 18:00:00 TS 38.0000 -71.2000 90 hurdat_atl main 315 308 O____________O hurdat_atl AL031862 38.0000 -71.5000 HU 90 2 38.0000 -70.6000 MH 100 12 36
1862251N15325 1862 20 NA NA NOT_NAMED 1862-09-18 21:00:00 TS 38.4668 -70.6807 main 303 292 P____________P AL031862 38.5002 -70.8749 HU 90 2 38.4000 -70.2923 MH 100 13 44
1862251N15325 1862 20 NA NA NOT_NAMED 1862-09-19 00:00:00 TS 38.9333 -70.0667 90 hurdat_atl main 293 254 O____________O hurdat_atl AL031862 39.0000 -70.1000 HU 90 2 38.8000 -70.0000 MH 100 13 45
1862251N15325 1862 20 NA NA NOT_NAMED 1862-09-19 03:00:00 TS 39.4093 -69.4792 main 254 227 P____________P AL031862 39.5141 -69.3441 HU 90 2 39.1998 -69.7495 MH 100 13 46
1862251N15325 1862 20 NA NA NOT_NAMED 1862-09-19 06:00:00 TS 39.8667 -68.8333 90 hurdat_atl main 224 213 O____________O hurdat_atl AL031862 40.0000 -68.5000 HU 90 2 39.6000 -69.5000 MH 100 13 48
1862251N15325 1862 20 NA NA NOT_NAMED 1862-09-19 09:00:00 TS 40.2677 -68.2225 main 216 214 P____________P AL031862 40.4213 -67.5659 HU 90 2 39.9606 -69.5355 MH 100 14 56
1862251N15325 1862 20 NA NA NOT_NAMED 1862-09-19 12:00:00 TS 40.6667 -67.3000 90 hurdat_atl main 251 251 O____________O hurdat_atl AL031862 40.8000 -66.5000 HU 90 2 40.4000 -68.9000 MH 100 948 20 66
1862251N15325 1862 20 NA NA NOT_NAMED 1862-09-19 15:00:00 TS 41.1075 -65.7776 main 267 238 P____________P AL031862 41.1710 -65.3242 HU 90 2 40.9806 -66.6845 MH 100 951 27 71
1862251N15325 1862 20 NA NA NOT_NAMED 1862-09-19 18:00:00 TS 41.5333 -63.9333 90 hurdat_atl main 250 244 O____________I hurdat_atl AL031862 41.5000 -64.0000 HU 90 2 41.6000 -63.8000 MH 100 955 28 73
1862251N15325 1862 20 NA NA NOT_NAMED 1862-09-19 21:00:00 TS 41.9162 -62.1581 main 298 298 P____________P AL031862 41.7612 -62.6096 HU 85 2 42.2263 -61.2550 MH 97 958 29 75
1862251N15325 1862 20 NA NA NOT_NAMED 1862-09-20 00:00:00 TS 42.3200 -60.1200 80 hurdat_atl main 332 325 O____________O hurdat_atl AL031862 42.0000 -61.0000 HU 80 1 42.8000 -58.8000 HU 95 962 33 76
1862251N15325 1862 20 NA NA NOT_NAMED 1862-09-20 03:00:00 TS 42.7275 -57.7976 main 382 377 P____________P AL031862 42.2543 -59.0921 HU 80 1 43.2007 -56.5032 HU 85 37 76
1862251N15325 1862 20 NA NA NOT_NAMED 1862-09-20 06:00:00 TS 43.2333 -55.2000 80 hurdat_atl main 398 295 O____________O hurdat_atl AL031862 42.5000 -57.0000 HU 80 1 43.6000 -54.3000 HU 75 44 72
1862251N15325 1862 20 NA NA NOT_NAMED 1862-09-20 09:00:00 TS 44.0696 -52.0636 main 290 290 _____________P AL031862 HU -1 44.0696 -52.0636 HU 70 41 69
1862251N15325 1862 20 NA NA NOT_NAMED 1862-09-20 12:00:00 TS 44.7000 -49.8000 main 337 337 _____________O -1 44.7000 -49.8000 HU 65 36 67
1862251N15325 1862 20 NA NA NOT_NAMED 1862-09-20 15:00:00 TS 45.4539 -47.4236 main 453 453 _____________P -1 45.4539 -47.4236 HU 65 38 62
1862251N15325 1862 20 NA NA NOT_NAMED 1862-09-20 18:00:00 ET 46.5000 -45.0000 main 584 584 _____________O -1 46.5000 -45.0000 EX 65 41 54
1862251N15325 1862 20 NA NA NOT_NAMED 1862-09-20 21:00:00 ET 47.9077 -42.5505 main 745 745 _____________P -1 47.9077 -42.5505 EX 62 45 48
1862251N15325 1862 20 NA NA NOT_NAMED 1862-09-21 00:00:00 ET 49.5000 -40.0000 main 944 _____________O -1 49.5000 -40.0000 EX 60 46 46

IBTrACS Databaseについて

本データベースは、米国NOAAが公開する1842年以降の世界の熱帯低気圧のベストトラックデータアーカイブInternational Best Track Archive for Climate Stewardship (IBTrACS)を、ウェブで閲覧しやすい形式に変換したものです。

最終更新日:2021-12-01